< < Back
Terminal Aerodrome Forecast


Current Version              Previous Versions:   1  2  3  4  5  6  7  8  9  

Terminal Aerodrome Forecast

819
FTUS44 KBMX 032124 AAA
TAFTCL
TAF AMD
KTCL 032124Z 0321/0418 26010KT P6SM VCSH BKN040
      TEMPO 0321/0323 2SM TSRA BR BKN025CB OVC040
     FM040000 17004KT P6SM BKN050
     FM040500 18006KT 3SM +TSRA BKN015CB OVC030
     FM041000 21010KT P6SM OVC040=

Latest METAR

419
SAUS70 KWBC 032300
MTRTCL
METAR KTCL 032253Z 00000KT 10SM FEW044 FEW080 SCT110 24/22 A2998 RMK AO2
LTG DSNT E-SW RAE52 TSB12E32 SLP149 P0030 T02440222


USA.gov is the U.S. government's official web portal to all federal, state and local government web resources and services.